Time;durP1;ratioP1;P1;durP2;ratioP2;P2;SDS_P1;SDS_P2;PMS_P1;PMS_P2;Temp;Humidity;BMP_temperature;BMP_pressure;BME280_temperature;BME280_humidity;BME280_pressure;Samples;Min_cycle;Max_cycle;Signal;HPM_P1;HPM_P2
2021/05/02 00:00:39;;;;;;;3.17;1.92;;;20.50;43.80;;;;;;5034985;28;20037;-50
2021/05/02 00:03:05;;;;;;;3.30;2.03;;;20.50;43.80;;;;;;5035116;28;20122;-47
2021/05/02 00:05:36;;;;;;;2.58;1.90;;;20.50;43.80;;;;;;5035036;28;20111;-47
2021/05/02 00:08:03;;;;;;;2.92;1.85;;;20.50;43.80;;;;;;5035056;28;20448;-48
2021/05/02 00:10:30;;;;;;;2.13;1.77;;;20.50;43.80;;;;;;5035404;28;20386;-46
2021/05/02 00:12:57;;;;;;;4.95;2.00;;;20.50;43.90;;;;;;5035182;28;20470;-46
2021/05/02 00:15:24;;;;;;;2.70;2.03;;;20.50;43.90;;;;;;5034978;28;20360;-47
2021/05/02 00:17:52;;;;;;;3.63;2.00;;;20.40;43.80;;;;;;5035240;28;20095;-47
2021/05/02 00:20:21;;;;;;;3.33;1.83;;;20.40;43.80;;;;;;5034844;28;20099;-45
2021/05/02 00:22:50;;;;;;;3.60;1.52;;;20.50;43.90;;;;;;5035352;28;20068;-47
2021/05/02 00:25:22;;;;;;;3.30;2.00;;;20.40;43.90;;;;;;5035496;28;20056;-46
2021/05/02 00:27:48;;;;;;;2.00;1.60;;;20.50;43.90;;;;;;5035340;28;20056;-51
2021/05/02 00:30:16;;;;;;;2.95;1.80;;;20.40;43.90;;;;;;5034798;28;20036;-51
2021/05/02 00:32:47;;;;;;;2.63;1.58;;;20.40;43.90;;;;;;5034804;28;20407;-47
2021/05/02 00:35:13;;;;;;;1.75;1.60;;;20.40;43.90;;;;;;5034163;28;20021;-48
2021/05/02 00:37:40;;;;;;;1.75;1.65;;;20.40;44.00;;;;;;5035109;28;20087;-46
2021/05/02 00:40:18;;;;;;;1.63;1.42;;;20.40;44.00;;;;;;5034692;28;20075;-49
2021/05/02 00:42:54;;;;;;;2.08;1.50;;;20.40;43.90;;;;;;5035160;28;20116;-47
2021/05/02 00:45:26;;;;;;;3.63;2.55;;;20.40;43.90;;;;;;5034500;28;20146;-49
2021/05/02 00:48:06;;;;;;;1.67;1.58;;;20.40;43.90;;;;;;5034444;28;20505;-46
2021/05/02 00:50:48;;;;;;;2.30;1.73;;;20.40;43.90;;;;;;5034832;28;20017;-45
2021/05/02 00:53:44;;;;;;;3.00;1.90;;;20.40;44.00;;;;;;5034879;28;20021;-46
2021/05/02 00:56:24;;;;;;;5.45;1.98;;;20.30;43.90;;;;;;5034473;28;20109;-46
2021/05/02 00:59:00;;;;;;;3.20;1.60;;;20.30;43.90;;;;;;5034837;28;20025;-46
2021/05/02 01:01:48;;;;;;;1.88;1.45;;;20.30;43.90;;;;;;5034542;28;20037;-48
2021/05/02 01:04:19;;;;;;;1.95;1.75;;;20.30;43.90;;;;;;5034275;28;20021;-47
2021/05/02 01:06:48;;;;;;;4.13;1.70;;;20.30;44.00;;;;;;5034283;28;20025;-50
2021/05/02 01:09:16;;;;;;;2.75;1.90;;;20.30;43.90;;;;;;5034566;28;20356;-48
2021/05/02 01:11:45;;;;;;;1.75;1.63;;;20.30;43.90;;;;;;5034384;28;20352;-49
2021/05/02 01:14:12;;;;;;;2.20;1.55;;;20.30;43.90;;;;;;5034656;28;20028;-50
2021/05/02 01:16:39;;;;;;;2.75;1.42;;;20.30;43.90;;;;;;5034685;28;20025;-49
2021/05/02 01:19:08;;;;;;;1.85;1.48;;;20.30;43.90;;;;;;5034304;28;20021;-49
2021/05/02 01:21:37;;;;;;;2.72;1.50;;;20.30;43.90;;;;;;5034680;28;20049;-48
2021/05/02 01:24:06;;;;;;;2.40;1.50;;;20.20;43.90;;;;;;5034105;28;20018;-50
2021/05/02 01:26:34;;;;;;;1.63;1.40;;;20.20;43.90;;;;;;5034108;28;20022;-51
2021/05/02 01:28:59;;;;;;;1.65;1.40;;;20.30;43.90;;;;;;5034406;28;20036;-51
2021/05/02 01:31:27;;;;;;;1.55;1.33;;;20.30;43.90;;;;;;5034197;28;20033;-49
2021/05/02 01:33:52;;;;;;;2.53;1.30;;;20.20;43.80;;;;;;5034443;28;20137;-49
2021/05/02 01:36:18;;;;;;;1.30;1.17;;;20.20;43.90;;;;;;5034602;28;20109;-48
2021/05/02 01:38:44;;;;;;;1.52;1.23;;;20.20;43.90;;;;;;5034323;28;20084;-49
2021/05/02 01:41:10;;;;;;;2.58;1.50;;;20.20;43.80;;;;;;5034221;28;20041;-49
2021/05/02 01:43:36;;;;;;;1.40;1.30;;;20.20;43.80;;;;;;5034245;28;20403;-46
2021/05/02 01:46:03;;;;;;;1.67;1.10;;;20.20;43.80;;;;;;5034373;28;20033;-48
2021/05/02 01:48:32;;;;;;;1.88;1.30;;;20.20;43.80;;;;;;5038349;28;20383;-48
2021/05/02 01:51:02;;;;;;;1.98;1.20;;;20.20;43.80;;;;;;5037727;28;20333;-47
2021/05/02 01:53:29;;;;;;;1.92;1.25;;;20.20;43.80;;;;;;5037868;28;20128;-46
2021/05/02 01:55:55;;;;;;;4.22;1.63;;;20.20;43.80;;;;;;5038149;28;20025;-50
2021/05/02 01:58:22;;;;;;;2.10;1.30;;;20.20;43.80;;;;;;5037898;28;20116;-47
2021/05/02 02:00:52;;;;;;;1.35;1.10;;;20.20;43.80;;;;;;5037706;28;20033;-47
2021/05/02 02:03:18;;;;;;;1.23;1.13;;;20.20;43.80;;;;;;5037484;28;20053;-48
2021/05/02 02:05:45;;;;;;;2.25;1.35;;;20.20;43.80;;;;;;5037788;28;20025;-47
2021/05/02 02:08:10;;;;;;;3.35;1.42;;;20.20;43.70;;;;;;5037171;28;20352;-47
2021/05/02 02:10:37;;;;;;;1.25;1.10;;;20.10;43.70;;;;;;5037496;28;20044;-49
2021/05/02 02:13:04;;;;;;;1.38;0.95;;;20.10;43.70;;;;;;5036955;28;20029;-49
2021/05/02 02:15:30;;;;;;;2.75;1.30;;;20.10;43.70;;;;;;5037529;28;20025;-46
2021/05/02 02:17:57;;;;;;;1.45;0.98;;;20.10;43.70;;;;;;5037219;28;20023;-47
2021/05/02 02:20:25;;;;;;;1.42;1.27;;;20.10;43.60;;;;;;5037139;28;20030;-48
2021/05/02 02:22:55;;;;;;;1.42;1.10;;;20.10;43.60;;;;;;5037471;28;20025;-46
2021/05/02 02:25:26;;;;;;;2.70;1.17;;;20.10;43.60;;;;;;5037441;28;20087;-46
2021/05/02 02:27:55;;;;;;;1.80;1.10;;;20.10;43.60;;;;;;5036964;28;20044;-48
2021/05/02 02:30:21;;;;;;;4.95;1.40;;;20.10;43.60;;;;;;5037141;28;20025;-46
2021/05/02 02:32:48;;;;;;;1.45;1.20;;;20.10;43.70;;;;;;5036879;28;20419;-47
2021/05/02 02:35:18;;;;;;;1.33;1.10;;;20.10;43.60;;;;;;5036974;28;20502;-48
2021/05/02 02:37:45;;;;;;;1.65;0.90;;;20.10;43.60;;;;;;5037057;28;20029;-48
2021/05/02 02:40:14;;;;;;;1.42;1.10;;;20.10;43.60;;;;;;5036634;28;20038;-48
2021/05/02 02:42:44;;;;;;;1.52;0.93;;;20.10;43.60;;;;;;5037148;28;20037;-49
2021/05/02 02:45:10;;;;;;;1.33;1.10;;;20.10;43.60;;;;;;5037434;28;20069;-46
2021/05/02 02:47:53;;;;;;;0.90;0.90;;;20.10;43.60;;;;;;5037030;28;20040;-47
2021/05/02 02:50:20;;;;;;;3.33;1.13;;;20.10;43.60;;;;;;5036734;28;20025;-48
2021/05/02 02:52:53;;;;;;;2.75;1.17;;;20.10;43.50;;;;;;5036779;28;20029;-50
2021/05/02 02:55:21;;;;;;;1.58;1.00;;;20.00;43.50;;;;;;5036397;28;20095;-48
2021/05/02 02:57:53;;;;;;;0.80;0.80;;;20.00;43.50;;;;;;5036178;28;20030;-48
2021/05/02 03:00:22;;;;;;;1.55;1.00;;;20.00;43.50;;;;;;5036540;28;20143;-51
2021/05/02 03:03:09;;;;;;;1.23;0.95;;;20.00;43.40;;;;;;5036523;28;20342;-51
2021/05/02 03:05:36;;;;;;;1.02;0.93;;;20.00;43.40;;;;;;5036814;28;20033;-50
2021/05/02 03:08:05;;;;;;;1.48;1.13;;;20.00;43.50;;;;;;5036762;28;20026;-49
2021/05/02 03:10:31;;;;;;;1.13;0.73;;;20.00;43.40;;;;;;5036420;28;20029;-46
2021/05/02 03:12:58;;;;;;;1.50;1.05;;;20.00;43.40;;;;;;5036044;28;20191;-51
2021/05/02 03:15:24;;;;;;;1.08;0.90;;;20.00;43.40;;;;;;5036192;28;20096;-49
2021/05/02 03:18:02;;;;;;;1.75;0.90;;;20.00;43.40;;;;;;5035991;28;20160;-50
2021/05/02 03:20:34;;;;;;;0.90;0.80;;;20.00;43.40;;;;;;5036120;28;20468;-49
2021/05/02 03:23:12;;;;;;;0.70;0.70;;;19.90;43.30;;;;;;5036279;28;20044;-52
2021/05/02 03:25:41;;;;;;;1.65;1.17;;;19.90;43.30;;;;;;5035872;28;20093;-52
2021/05/02 03:28:10;;;;;;;2.15;1.05;;;19.90;43.30;;;;;;5036001;28;20118;-51
2021/05/02 03:30:40;;;;;;;2.75;0.90;;;19.90;43.30;;;;;;5036023;28;20022;-49
2021/05/02 03:33:10;;;;;;;1.23;0.80;;;19.90;43.30;;;;;;5036001;28;20096;-48
2021/05/02 03:35:39;;;;;;;1.65;0.95;;;19.90;43.30;;;;;;5035390;28;20033;-48
2021/05/02 03:38:42;;;;;;;1.73;0.90;;;19.90;43.30;;;;;;5036147;28;20017;-51
2021/05/02 03:41:08;;;;;;;0.88;0.70;;;19.90;43.20;;;;;;5018515;28;20088;-50
2021/05/02 03:43:37;;;;;;;1.50;1.02;;;19.90;43.30;;;;;;5036174;28;20171;-48
2021/05/02 03:46:02;;;;;;;0.82;0.82;;;19.90;43.30;;;;;;5035642;28;20026;-48
2021/05/02 03:48:28;;;;;;;1.75;0.80;;;19.80;43.20;;;;;;5035304;28;20108;-48
2021/05/02 03:50:53;;;;;;;1.10;0.82;;;19.90;43.20;;;;;;5035561;28;20036;-47
2021/05/02 03:53:19;;;;;;;0.80;0.80;;;19.90;43.20;;;;;;5035442;28;20079;-47
2021/05/02 03:55:48;;;;;;;1.65;1.00;;;19.90;43.20;;;;;;5035488;28;20432;-50
2021/05/02 03:58:15;;;;;;;1.23;0.73;;;19.80;43.20;;;;;;5035502;28;20048;-47
2021/05/02 04:00:42;;;;;;;1.13;0.90;;;19.80;43.20;;;;;;5035041;28;20072;-46
2021/05/02 04:03:07;;;;;;;0.65;0.65;;;19.80;43.20;;;;;;5017776;28;20104;-48
2021/05/02 04:05:33;;;;;;;1.60;1.35;;;19.80;43.20;;;;;;5035265;28;20052;-51
2021/05/02 04:07:59;;;;;;;0.88;0.88;;;19.80;43.20;;;;;;5035235;28;20425;-46
2021/05/02 04:10:25;;;;;;;1.33;0.80;;;19.80;43.10;;;;;;5034485;28;20025;-50
2021/05/02 04:12:51;;;;;;;1.20;0.90;;;19.80;43.20;;;;;;5035210;28;20075;-51
2021/05/02 04:15:17;;;;;;;2.45;0.90;;;19.80;43.10;;;;;;5035323;28;20077;-47
2021/05/02 04:17:43;;;;;;;0.85;0.82;;;19.80;43.10;;;;;;5035155;28;20026;-49
2021/05/02 04:20:10;;;;;;;1.00;0.65;;;19.80;43.10;;;;;;5035077;28;20040;-47
2021/05/02 04:22:36;;;;;;;1.10;0.82;;;19.80;43.10;;;;;;5035016;28;20025;-47
2021/05/02 04:25:02;;;;;;;0.90;0.90;;;19.80;43.10;;;;;;5035279;28;20033;-48
2021/05/02 04:27:27;;;;;;;2.25;0.88;;;19.80;43.10;;;;;;5035127;28;20029;-48
2021/05/02 04:29:56;;;;;;;2.03;1.33;;;19.80;43.10;;;;;;5035158;28;20035;-46
2021/05/02 04:32:21;;;;;;;2.28;1.02;;;19.80;43.10;;;;;;5035010;28;20469;-48
2021/05/02 04:34:47;;;;;;;1.00;0.90;;;19.70;43.00;;;;;;5035155;28;20037;-47
2021/05/02 04:37:13;;;;;;;0.75;0.75;;;19.70;43.00;;;;;;5034815;28;20029;-47
2021/05/02 04:39:38;;;;;;;1.83;1.17;;;19.80;43.10;;;;;;5034825;28;20033;-47
2021/05/02 04:42:05;;;;;;;1.25;0.75;;;19.70;43.00;;;;;;5034803;28;20444;-46
2021/05/02 04:44:30;;;;;;;0.93;0.80;;;19.70;43.60;;;;;;5034994;28;20053;-47
2021/05/02 04:46:56;;;;;;;1.02;0.80;;;19.80;43.10;;;;;;5034400;28;20065;-49
2021/05/02 04:49:22;;;;;;;1.85;0.80;;;19.70;43.10;;;;;;5034625;28;20021;-46
2021/05/02 04:51:48;;;;;;;3.13;0.75;;;19.70;43.20;;;;;;5034478;28;20079;-48
2021/05/02 04:54:13;;;;;;;1.08;0.82;;;19.70;43.40;;;;;;5034752;28;20108;-46
2021/05/02 04:56:39;;;;;;;2.15;0.85;;;19.70;43.50;;;;;;5034632;28;20210;-48
2021/05/02 04:59:09;;;;;;;0.73;0.60;;;19.70;43.60;;;;;;5034765;28;20022;-48
2021/05/02 05:01:36;;;;;;;4.75;0.75;;;19.80;43.60;;;;;;5034256;28;20044;-49
2021/05/02 05:04:03;;;;;;;3.05;0.88;;;19.80;43.70;;;;;;5033601;28;20025;-49
2021/05/02 05:06:28;;;;;;;0.60;0.60;;;19.80;43.70;;;;;;5034177;28;20029;-46
2021/05/02 05:08:54;;;;;;;1.38;1.00;;;19.80;43.70;;;;;;5034503;28;20036;-46
2021/05/02 05:11:22;;;;;;;5.95;1.15;;;19.90;43.90;;;;;;5033873;28;20109;-48
2021/05/02 05:13:48;;;;;;;2.78;0.70;;;19.90;43.90;;;;;;5034389;28;20101;-45
2021/05/02 05:16:14;;;;;;;1.98;0.75;;;19.90;43.90;;;;;;5034629;28;20105;-48
2021/05/02 05:18:39;;;;;;;0.90;0.70;;;19.90;43.80;;;;;;5034789;28;20109;-47
2021/05/02 05:21:05;;;;;;;1.00;0.57;;;20.00;43.80;;;;;;5034358;28;21179;-47
2021/05/02 05:23:30;;;;;;;1.40;0.80;;;20.00;43.80;;;;;;5038172;28;20032;-47
2021/05/02 05:25:56;;;;;;;2.75;0.80;;;20.00;43.80;;;;;;5038086;28;20034;-51
2021/05/02 05:28:25;;;;;;;2.38;0.77;;;20.00;43.80;;;;;;5038374;28;20025;-48
2021/05/02 05:30:52;;;;;;;1.90;0.65;;;20.00;43.80;;;;;;5038012;28;20026;-49
2021/05/02 05:33:18;;;;;;;4.25;0.68;;;20.10;43.80;;;;;;5038072;28;20425;-48
2021/05/02 05:35:43;;;;;;;2.10;0.60;;;20.10;43.80;;;;;;5037550;28;20025;-47
2021/05/02 05:38:09;;;;;;;1.00;0.90;;;20.10;43.80;;;;;;5037755;28;20033;-47
2021/05/02 05:40:35;;;;;;;1.27;0.70;;;20.20;43.80;;;;;;5037298;28;20033;-47
2021/05/02 05:43:04;;;;;;;0.77;0.70;;;20.20;43.90;;;;;;5037783;28;20119;-47
2021/05/02 05:45:32;;;;;;;2.08;0.82;;;20.20;43.80;;;;;;5037947;28;20041;-47
2021/05/02 05:47:58;;;;;;;2.20;0.80;;;20.20;43.80;;;;;;5037997;28;20117;-46
2021/05/02 05:50:25;;;;;;;2.38;0.63;;;20.20;43.80;;;;;;5037951;28;20116;-47
2021/05/02 05:52:51;;;;;;;2.90;0.93;;;20.20;43.80;;;;;;5036876;28;20033;-49
2021/05/02 05:55:17;;;;;;;1.58;0.88;;;20.30;43.90;;;;;;5037669;28;20022;-46
2021/05/02 05:57:47;;;;;;;1.42;0.52;;;20.20;43.80;;;;;;5038087;28;20039;-48
2021/05/02 06:00:14;;;;;;;1.98;0.50;;;20.30;43.90;;;;;;5037734;28;20033;-48
2021/05/02 06:02:40;;;;;;;1.58;0.60;;;20.30;43.90;;;;;;5037712;28;20026;-47
2021/05/02 06:05:07;;;;;;;0.80;0.70;;;20.30;43.90;;;;;;5037432;28;20359;-48
2021/05/02 06:07:32;;;;;;;2.75;0.68;;;20.40;43.90;;;;;;5037792;28;20033;-48
2021/05/02 06:09:58;;;;;;;1.42;0.77;;;20.40;44.00;;;;;;5036967;28;20418;-48
2021/05/02 06:12:23;;;;;;;1.58;0.85;;;20.40;44.00;;;;;;5037389;28;20029;-50
2021/05/02 06:14:49;;;;;;;1.27;0.80;;;20.40;44.00;;;;;;5037552;28;20029;-49
2021/05/02 06:17:15;;;;;;;2.97;0.85;;;20.40;44.10;;;;;;5037915;28;20021;-47
2021/05/02 06:19:41;;;;;;;2.30;0.75;;;20.40;44.10;;;;;;5037804;28;20029;-46
2021/05/02 06:22:07;;;;;;;2.00;0.90;;;20.40;44.20;;;;;;5037533;28;20018;-49
2021/05/02 06:24:33;;;;;;;6.10;0.90;;;20.50;44.10;;;;;;5037347;28;20101;-50
2021/05/02 06:26:58;;;;;;;2.10;0.80;;;20.50;44.10;;;;;;5037366;28;20021;-48
2021/05/02 06:29:24;;;;;;;1.20;0.60;;;20.50;44.00;;;;;;5037069;28;20110;-48
2021/05/02 06:31:50;;;;;;;2.13;1.13;;;20.60;44.10;;;;;;5037277;28;20045;-46
2021/05/02 06:34:15;;;;;;;2.15;1.00;;;20.60;44.20;;;;;;5036617;28;20471;-47
2021/05/02 06:36:42;;;;;;;2.83;1.38;;;20.60;44.30;;;;;;5036770;28;20476;-47
2021/05/02 06:39:09;;;;;;;4.55;0.80;;;20.60;44.10;;;;;;5036791;28;20021;-49
2021/05/02 06:41:37;;;;;;;2.35;1.00;;;20.70;44.00;;;;;;5036112;28;20037;-49
2021/05/02 06:44:04;;;;;;;2.92;1.20;;;20.60;43.90;;;;;;5036833;28;20425;-53
2021/05/02 06:46:30;;;;;;;8.95;1.30;;;20.60;43.80;;;;;;5036625;28;20025;-47
2021/05/02 06:49:01;;;;;;;2.03;1.08;;;20.60;43.70;;;;;;5036621;28;20425;-47
2021/05/02 06:51:27;;;;;;;4.38;0.95;;;20.70;43.80;;;;;;5036530;28;20466;-48
2021/05/02 06:53:53;;;;;;;5.47;1.38;;;20.60;43.80;;;;;;5036764;28;20034;-47
2021/05/02 06:56:19;;;;;;;5.88;1.20;;;20.60;39.20;;;;;;5036798;28;20108;-49
2021/05/02 06:58:47;;;;;;;4.85;1.10;;;20.50;40.90;;;;;;5036547;28;20028;-47
2021/05/02 07:01:12;;;;;;;3.35;1.02;;;20.50;42.10;;;;;;5036252;28;20471;-49
2021/05/02 07:03:38;;;;;;;3.92;1.20;;;20.40;42.20;;;;;;5018846;28;20053;-47
2021/05/02 07:06:04;;;;;;;6.82;1.17;;;20.50;42.60;;;;;;5036204;28;20163;-47
2021/05/02 07:08:30;;;;;;;2.38;0.82;;;20.50;42.80;;;;;;5036884;28;20036;-50
2021/05/02 07:10:56;;;;;;;4.35;1.10;;;20.60;42.60;;;;;;5036376;28;20352;-48
2021/05/02 07:13:21;;;;;;;4.85;0.88;;;20.60;42.70;;;;;;5036327;28;20037;-50
2021/05/02 07:15:47;;;;;;;5.45;1.02;;;20.60;42.80;;;;;;5036347;28;20021;-50
2021/05/02 07:18:12;;;;;;;2.20;1.05;;;20.60;42.80;;;;;;5036555;28;20103;-47
2021/05/02 07:20:38;;;;;;;5.43;1.05;;;20.70;42.60;;;;;;5036210;28;20385;-48
2021/05/02 07:23:03;;;;;;;4.07;1.30;;;20.70;42.70;;;;;;5036413;28;20029;-46
2021/05/02 07:25:29;;;;;;;2.83;0.90;;;20.70;42.80;;;;;;5036154;28;20095;-47
2021/05/02 07:27:54;;;;;;;8.80;1.30;;;20.80;42.90;;;;;;5036387;28;20036;-56
2021/05/02 07:30:21;;;;;;;6.03;1.52;;;20.80;42.70;;;;;;5035976;28;20029;-48
2021/05/02 07:32:47;;;;;;;10.90;0.93;;;20.80;42.90;;;;;;5035970;28;20046;-48
2021/05/02 07:35:13;;;;;;;6.70;1.50;;;20.80;42.40;;;;;;5036234;28;20095;-48
2021/05/02 07:37:39;;;;;;;3.90;0.90;;;20.80;42.70;;;;;;5036026;28;20029;-48
2021/05/02 07:40:07;;;;;;;9.07;1.15;;;20.80;42.30;;;;;;5035682;28;20036;-47
2021/05/02 07:42:32;;;;;;;6.13;1.15;;;20.90;42.40;;;;;;5018202;28;20029;-46
2021/05/02 07:44:58;;;;;;;5.45;1.60;;;20.90;42.70;;;;;;5035425;28;20040;-48
2021/05/02 07:47:24;;;;;;;4.90;1.55;;;20.90;42.60;;;;;;5035904;28;20160;-47
2021/05/02 07:49:50;;;;;;;3.67;1.10;;;20.90;42.20;;;;;;5035762;28;20197;-49
2021/05/02 07:52:16;;;;;;;5.82;1.17;;;20.90;42.00;;;;;;5035567;28;20044;-49
2021/05/02 07:54:42;;;;;;;4.95;1.17;;;20.90;43.10;;;;;;5035282;28;20469;-50
2021/05/02 07:57:08;;;;;;;7.97;1.42;;;20.90;42.30;;;;;;5035739;28;20072;-47
2021/05/02 07:59:33;;;;;;;3.97;1.13;;;20.90;42.40;;;;;;5035285;28;20447;-46
2021/05/02 08:01:59;;;;;;;3.42;0.90;;;21.00;42.20;;;;;;5035444;28;20116;-47
2021/05/02 08:04:24;;;;;;;2.38;0.82;;;21.00;42.20;;;;;;5018070;28;20056;-49
2021/05/02 08:06:50;;;;;;;1.88;0.80;;;21.00;42.80;;;;;;5035364;28;20037;-49
2021/05/02 08:09:16;;;;;;;2.65;0.80;;;21.10;42.80;;;;;;5035121;28;20029;-49
2021/05/02 08:11:42;;;;;;;4.10;1.08;;;21.10;42.40;;;;;;5034707;28;20040;-47
2021/05/02 08:14:07;;;;;;;5.38;0.90;;;21.10;42.20;;;;;;5035290;28;20053;-51
2021/05/02 08:16:33;;;;;;;8.23;1.38;;;21.00;41.60;;;;;;5035263;28;20021;-52
2021/05/02 08:19:01;;;;;;;3.60;1.00;;;21.00;41.60;;;;;;5035106;28;20368;-47
2021/05/02 08:21:27;;;;;;;3.33;1.33;;;21.00;41.60;;;;;;5035247;28;20529;-45
2021/05/02 08:23:52;;;;;;;3.58;0.90;;;21.00;41.40;;;;;;5035227;28;20029;-47
2021/05/02 08:26:18;;;;;;;2.80;0.85;;;21.00;41.60;;;;;;5034274;28;20356;-47
2021/05/02 08:28:44;;;;;;;3.47;0.80;;;21.00;41.90;;;;;;5034692;28;20421;-46
2021/05/02 08:31:13;;;;;;;3.97;0.65;;;21.10;42.30;;;;;;5032341;28;20026;-44
2021/05/02 08:33:39;;;;;;;1.38;0.50;;;21.10;42.50;;;;;;5031137;28;20060;-52
2021/05/02 08:36:05;;;;;;;3.63;0.85;;;21.20;42.70;;;;;;5025665;28;20017;-46
2021/05/02 08:38:32;;;;;;;2.55;0.73;;;21.20;42.70;;;;;;5024573;28;20025;-46
2021/05/02 08:41:01;;;;;;;3.42;0.80;;;21.20;42.70;;;;;;5027390;28;20157;-50
2021/05/02 08:43:28;;;;;;;3.33;0.63;;;21.30;42.80;;;;;;5033421;28;20083;-47
2021/05/02 08:45:54;;;;;;;4.50;0.93;;;21.40;42.60;;;;;;5034665;28;20402;-47
2021/05/02 08:48:21;;;;;;;1.98;0.70;;;21.40;42.00;;;;;;5034953;28;20038;-48
2021/05/02 08:50:49;;;;;;;14.82;1.33;;;21.40;42.50;;;;;;5034639;28;20026;-47
2021/05/02 08:53:14;;;;;;;4.22;0.90;;;21.40;42.90;;;;;;5034836;28;20087;-46
2021/05/02 08:55:42;;;;;;;4.97;1.02;;;21.40;42.60;;;;;;5034186;28;20026;-48
2021/05/02 08:58:13;;;;;;;5.85;1.27;;;21.50;42.80;;;;;;5034649;28;20052;-46
2021/05/02 09:00:38;;;;;;;9.48;0.95;;;21.50;43.00;;;;;;5034536;28;20040;-46
2021/05/02 09:03:06;;;;;;;2.90;1.08;;;21.50;43.30;;;;;;5034332;28;20038;-49
2021/05/02 09:05:45;;;;;;;4.72;0.82;;;21.60;43.40;;;;;;5034406;28;20018;-49
2021/05/02 09:08:35;;;;;;;4.47;0.50;;;21.60;43.50;;;;;;5035003;28;20412;-47
2021/05/02 09:11:02;;;;;;;3.33;0.90;;;21.60;43.40;;;;;;5034570;28;20037;-50
2021/05/02 09:13:29;;;;;;;1.60;0.60;;;21.60;43.10;;;;;;5034581;28;20037;-51
2021/05/02 09:16:01;;;;;;;3.00;0.80;;;21.60;43.30;;;;;;5034690;28;20036;-50
2021/05/02 09:18:37;;;;;;;3.47;0.68;;;21.60;43.40;;;;;;5034233;28;20053;-48
2021/05/02 09:21:05;;;;;;;2.67;0.70;;;21.60;43.30;;;;;;5034346;28;20049;-48
2021/05/02 09:23:40;;;;;;;5.57;0.90;;;21.60;42.70;;;;;;5034851;28;20032;-49
2021/05/02 09:26:08;;;;;;;2.90;0.60;;;21.60;41.70;;;;;;5017142;28;20033;-47
2021/05/02 09:29:06;;;;;;;3.15;0.70;;;21.60;42.50;;;;;;5034323;28;20032;-46
2021/05/02 09:31:36;;;;;;;2.08;0.65;;;21.60;42.90;;;;;;5015549;28;20456;-57
2021/05/02 09:34:14;;;;;;;2.65;0.70;;;21.50;43.00;;;;;;5034991;28;20448;-48
2021/05/02 09:36:55;;;;;;;1.45;0.47;;;21.60;43.00;;;;;;5034184;28;20325;-48
2021/05/02 09:39:46;;;;;;;2.15;0.50;;;21.60;43.00;;;;;;5034111;28;20025;-48
2021/05/02 09:42:15;;;;;;;3.67;0.82;;;21.60;42.70;;;;;;5034641;28;20095;-48
2021/05/02 09:44:50;;;;;;;3.60;1.00;;;21.60;42.80;;;;;;5034507;28;20041;-48
2021/05/02 09:47:36;;;;;;;3.05;0.70;;;21.50;42.00;;;;;;5034448;28;20037;-49
2021/05/02 09:50:20;;;;;;;2.90;1.00;;;21.50;38.20;;;;;;5033938;28;20398;-49
2021/05/02 09:52:55;;;;;;;4.40;0.65;;;21.40;39.70;;;;;;5034126;28;20108;-51
2021/05/02 09:55:26;;;;;;;2.72;0.70;;;21.30;40.90;;;;;;5034582;28;20060;-53
2021/05/02 09:58:09;;;;;;;1.15;0.68;;;21.40;41.60;;;;;;5034321;28;20021;-53
2021/05/02 10:00:39;;;;;;;;;;;21.40;41.70;;;;;;5034504;28;20034;-52
2021/05/02 10:03:20;;;;;;;1.98;0.65;;;21.40;41.50;;;;;;5034188;28;19956;-49
2021/05/02 10:05:57;;;;;;;2.72;0.60;;;21.40;41.80;;;;;;5034128;28;20126;-50
2021/05/02 10:08:33;;;;;;;1.23;0.50;;;21.50;41.70;;;;;;5035072;28;20041;-50
2021/05/02 10:11:02;;;;;;;2.05;0.70;;;21.50;41.80;;;;;;5037515;28;20437;-49
2021/05/02 10:13:29;;;;;;;7.03;0.70;;;21.50;42.00;;;;;;5037714;28;20034;-48
2021/05/02 10:15:57;;;;;;;1.00;0.55;;;21.50;41.90;;;;;;5037781;28;20026;-51
2021/05/02 10:18:22;;;;;;;3.13;0.60;;;21.50;42.10;;;;;;5037820;28;20049;-49
2021/05/02 10:20:49;;;;;;;2.92;0.80;;;21.50;41.80;;;;;;5035836;28;20460;-54
2021/05/02 10:23:16;;;;;;;4.25;0.80;;;21.50;41.60;;;;;;5037222;28;20117;-51
2021/05/02 10:25:43;;;;;;;4.78;0.65;;;21.50;41.20;;;;;;5037345;28;20029;-52
2021/05/02 10:28:19;;;;;;;5.43;0.82;;;21.50;41.40;;;;;;5036949;28;20440;-49
2021/05/02 10:30:49;;;;;;;8.15;0.95;;;21.50;41.60;;;;;;5037227;28;20433;-50
2021/05/02 10:33:28;;;;;;;4.85;0.90;;;21.50;41.80;;;;;;5037006;28;20073;-51
2021/05/02 10:35:55;;;;;;;6.05;0.75;;;21.50;41.90;;;;;;5036873;28;20100;-48
2021/05/02 10:38:42;;;;;;;2.83;0.70;;;21.50;41.80;;;;;;5037160;28;20424;-50
2021/05/02 10:41:31;;;;;;;4.60;0.50;;;21.50;42.00;;;;;;5036590;28;20360;-51
2021/05/02 10:43:58;;;;;;;4.15;0.65;;;21.50;41.90;;;;;;5036771;28;20022;-49
2021/05/02 10:46:51;;;;;;;2.60;0.60;;;21.50;42.00;;;;;;5036923;28;20329;-53
2021/05/02 10:49:19;;;;;;;2.42;0.80;;;21.50;42.30;;;;;;5036879;28;20343;-50
2021/05/02 10:51:47;;;;;;;3.30;0.55;;;21.50;42.60;;;;;;5036892;28;20109;-47
2021/05/02 10:54:15;;;;;;;2.92;0.80;;;21.50;43.20;;;;;;5036416;28;20046;-48
2021/05/02 10:56:42;;;;;;;1.60;0.65;;;21.60;43.80;;;;;;5036776;28;20428;-49
2021/05/02 10:59:08;;;;;;;1.73;0.60;;;21.70;44.30;;;;;;5036818;28;20052;-49
2021/05/02 11:01:33;;;;;;;0.52;0.45;;;21.70;44.90;;;;;;5036477;28;20076;-50
2021/05/02 11:03:59;;;;;;;7.35;1.00;;;21.70;45.60;;;;;;5036329;28;20433;-50
2021/05/02 11:06:37;;;;;;;6.13;0.75;;;21.80;45.90;;;;;;5036845;28;20017;-49
2021/05/02 11:09:05;;;;;;;3.33;0.80;;;21.80;46.70;;;;;;5036415;28;20033;-49
2021/05/02 11:11:30;;;;;;;3.63;0.52;;;21.80;45.70;;;;;;5036906;28;20108;-55
2021/05/02 11:14:26;;;;;;;5.15;0.80;;;21.80;45.60;;;;;;5036825;28;20140;-56
2021/05/02 11:16:54;;;;;;;1.00;0.40;;;21.90;45.50;;;;;;5036577;28;20021;-54
2021/05/02 11:19:23;;;;;;;2.83;1.15;;;21.90;45.40;;;;;;5035879;28;20096;-57
2021/05/02 11:22:10;;;;;;;1.08;0.40;;;21.90;45.20;;;;;;5036520;28;20125;-52
2021/05/02 11:24:42;;;;;;;1.25;0.30;;;22.00;45.00;;;;;;5036275;28;20100;-54
2021/05/02 11:30:02;;;;;;;2.72;0.50;;;22.00;44.90;;;;;;5036279;28;20408;-60
2021/05/02 11:34:55;;;;;;;2.85;0.55;;;22.00;42.60;;;;;;5036033;28;20036;-57
2021/05/02 11:37:54;;;;;;;4.82;0.60;;;21.90;42.50;;;;;;5035938;28;20027;-58
2021/05/02 11:40:26;;;;;;;0.55;0.43;;;21.90;42.20;;;;;;5035733;28;20026;-55
2021/05/02 11:43:12;;;;;;;4.53;0.80;;;21.90;42.80;;;;;;5035681;28;20060;-50
2021/05/02 11:45:46;;;;;;;1.15;0.43;;;21.80;43.40;;;;;;5035108;28;20057;-51
2021/05/02 11:48:22;;;;;;;1.98;0.43;;;21.90;43.70;;;;;;5036080;28;20105;-53
2021/05/02 11:50:49;;;;;;;1.17;0.43;;;21.90;43.80;;;;;;5035579;28;20017;-50
2021/05/02 11:53:43;;;;;;;1.38;0.38;;;21.90;43.90;;;;;;5035759;28;20021;-54
2021/05/02 11:56:11;;;;;;;0.93;0.50;;;21.90;44.50;;;;;;5035972;28;20028;-52
2021/05/02 11:58:38;;;;;;;1.42;0.50;;;21.90;43.90;;;;;;5035760;28;20025;-54
2021/05/02 12:01:05;;;;;;;3.90;0.45;;;21.90;43.80;;;;;;5035297;28;20025;-51
2021/05/02 12:03:39;;;;;;;2.72;0.73;;;21.90;43.90;;;;;;5035486;28;20022;-54
2021/05/02 12:06:06;;;;;;;0.90;0.47;;;21.90;42.80;;;;;;5017797;28;20452;-49
2021/05/02 12:08:32;;;;;;;1.17;0.40;;;21.90;42.70;;;;;;5035766;28;20030;-56
2021/05/02 12:11:04;;;;;;;0.60;0.35;;;21.90;43.20;;;;;;5035426;28;20041;-53
2021/05/02 12:13:37;;;;;;;1.80;0.70;;;21.90;43.30;;;;;;5034973;28;20033;-53
2021/05/02 12:16:14;;;;;;;0.95;0.55;;;21.90;43.20;;;;;;5035475;28;20029;-55
2021/05/02 12:18:42;;;;;;;0.93;0.40;;;21.90;43.30;;;;;;5035332;28;20037;-58
2021/05/02 12:21:26;;;;;;;0.63;0.30;;;21.90;43.30;;;;;;5035551;28;20101;-56
2021/05/02 12:24:13;;;;;;;0.98;0.20;;;21.90;43.40;;;;;;5034876;28;20025;-54
2021/05/02 12:26:43;;;;;;;1.05;0.32;;;21.90;43.50;;;;;;5034282;28;20051;-57
2021/05/02 12:29:19;;;;;;;0.35;0.35;;;21.90;43.50;;;;;;5035322;28;20025;-56
2021/05/02 12:32:00;;;;;;;1.40;0.40;;;21.90;43.50;;;;;;5034328;28;20025;-58
2021/05/02 12:34:31;;;;;;;4.95;0.63;;;21.90;43.40;;;;;;5034799;28;20037;-56
2021/05/02 12:36:58;;;;;;;0.63;0.40;;;21.90;43.40;;;;;;5035193;28;20026;-53
2021/05/02 12:39:31;;;;;;;1.08;0.28;;;21.90;43.30;;;;;;5034613;28;20091;-55
2021/05/02 12:41:57;;;;;;;2.10;0.52;;;22.00;43.40;;;;;;5034564;28;20033;-53
2021/05/02 12:44:27;;;;;;;2.08;0.20;;;22.00;43.40;;;;;;5034951;28;20079;-52
2021/05/02 12:46:57;;;;;;;1.00;0.50;;;22.00;43.50;;;;;;5034489;28;20045;-56
2021/05/02 12:49:34;;;;;;;0.52;0.30;;;22.00;43.50;;;;;;5034888;28;20087;-55
2021/05/02 12:52:05;;;;;;;0.77;0.43;;;22.00;43.40;;;;;;5034863;28;20105;-50
2021/05/02 12:54:34;;;;;;;0.55;0.30;;;22.00;43.30;;;;;;5034530;28;20021;-56
2021/05/02 12:57:14;;;;;;;1.77;0.50;;;22.00;43.40;;;;;;5034949;28;20033;-53
2021/05/02 12:59:48;;;;;;;1.08;0.40;;;22.00;43.30;;;;;;5034667;28;20018;-57
2021/05/02 13:02:17;;;;;;;1.20;0.50;;;22.00;43.40;;;;;;5034947;28;20039;-53
2021/05/02 13:04:49;;;;;;;2.03;0.30;;;22.00;43.30;;;;;;5034782;28;20021;-59